馬祖北竿航空站 - ATIS

METAR RCMT 011100Z 04026KT 9999 -DZ SCT009 BKN014 12/08 Q1026 NOSIG RMK A3030(X)=

站台狀態:Online
最後更新:2022-12-01 23:30:02